Time;durP1;ratioP1;P1;durP2;ratioP2;P2;SDS_P1;SDS_P2;PMS_P1;PMS_P2;Temp;Humidity;BMP_temperature;BMP_pressure;BME280_temperature;BME280_humidity;BME280_pressure;Samples;Min_cycle;Max_cycle;Signal;HPM_P1;HPM_P2
2021/01/31 16:20:47;;;;;;;9.77;7.53;;;19.00;40.00;;;;;;5111165;27;20315;-62
2021/01/31 16:23:13;;;;;;;9.27;7.10;;;14.90;45.90;;;;;;5109416;28;20046;-62
2021/01/31 16:25:39;;;;;;;10.90;7.60;;;11.70;52.10;;;;;;5111421;28;20073;-61
2021/01/31 16:28:05;;;;;;;12.87;8.07;;;8.60;59.70;;;;;;5108982;28;20102;-62
2021/01/31 16:30:33;;;;;;;11.83;8.17;;;6.60;67.70;;;;;;5110336;28;20015;-61
2021/01/31 16:33:00;;;;;;;10.70;7.97;;;5.00;75.70;;;;;;5109715;28;20550;-61
2021/01/31 16:35:28;;;;;;;14.83;9.23;;;4.40;79.70;;;;;;5110689;28;20043;-61
2021/01/31 16:37:54;;;;;;;16.90;10.17;;;4.10;82.00;;;;;;5109257;28;20297;-61
2021/01/31 16:40:21;;;;;;;12.97;9.30;;;3.90;83.90;;;;;;5109890;28;20328;-60
2021/01/31 16:42:47;;;;;;;14.50;9.60;;;3.70;85.00;;;;;;5109026;28;20020;-61
2021/01/31 16:45:16;;;;;;;14.33;9.50;;;3.60;86.30;;;;;;5110200;28;20319;-62
2021/01/31 16:47:42;;;;;;;17.47;10.90;;;3.30;88.20;;;;;;5108570;28;20020;-60
2021/01/31 16:50:10;;;;;;;18.50;11.63;;;3.20;89.90;;;;;;5108225;28;20364;-60
2021/01/31 16:52:36;;;;;;;14.17;8.47;;;3.10;90.40;;;;;;5107092;28;20681;-60
2021/01/31 16:55:04;;;;;;;12.43;8.30;;;3.10;90.80;;;;;;5106264;28;20262;-61
2021/01/31 16:57:29;;;;;;;13.20;8.70;;;3.10;91.00;;;;;;5107881;28;20281;-60
2021/01/31 16:59:55;;;;;;;15.93;9.07;;;3.20;91.30;;;;;;5109731;28;20297;-60
2021/01/31 17:02:20;;;;;;;13.93;9.63;;;3.30;91.30;;;;;;5110063;28;20011;-60
2021/01/31 17:04:46;;;;;;;12.03;8.50;;;3.20;91.50;;;;;;5101849;28;20035;-61
2021/01/31 17:07:12;;;;;;;14.70;10.07;;;3.20;91.60;;;;;;5108507;28;20200;-60
2021/01/31 17:09:37;;;;;;;13.47;8.70;;;3.10;91.90;;;;;;5108009;28;20016;-61
2021/01/31 17:12:04;;;;;;;14.50;9.50;;;3.10;92.00;;;;;;5109611;28;20408;-60
2021/01/31 17:14:29;;;;;;;13.67;9.23;;;3.10;92.30;;;;;;5109859;28;20024;-60
2021/01/31 17:16:55;;;;;;;15.00;9.30;;;3.10;92.40;;;;;;5109366;28;20656;-60
2021/01/31 17:19:21;;;;;;;12.93;9.13;;;3.00;92.70;;;;;;5109357;28;20071;-60
2021/01/31 17:21:46;;;;;;;13.53;9.30;;;3.00;92.80;;;;;;5107888;28;20110;-60
2021/01/31 17:24:13;;;;;;;16.33;10.30;;;2.90;92.90;;;;;;5096248;28;20051;-60
2021/01/31 17:26:39;;;;;;;14.33;9.57;;;3.00;93.10;;;;;;5109278;28;20406;-60
2021/01/31 17:29:04;;;;;;;17.40;9.50;;;3.00;93.30;;;;;;5109771;28;20262;-60
2021/01/31 17:31:30;;;;;;;15.33;9.93;;;3.00;93.50;;;;;;5096164;28;20056;-64
2021/01/31 17:33:55;;;;;;;16.00;10.30;;;3.00;93.40;;;;;;5095896;28;20070;-60
2021/01/31 17:36:21;;;;;;;18.53;10.83;;;3.30;93.70;;;;;;5095601;28;20044;-61
2021/01/31 17:38:47;;;;;;;18.50;11.87;;;3.00;93.70;;;;;;5095842;28;20089;-61
2021/01/31 17:41:12;;;;;;;15.70;9.90;;;2.90;93.90;;;;;;5095464;28;20016;-60
2021/01/31 17:43:38;;;;;;;15.70;10.23;;;2.90;94.00;;;;;;5095814;28;20099;-60
2021/01/31 17:46:03;;;;;;;19.80;11.30;;;2.80;94.00;;;;;;5095865;28;20020;-60
2021/01/31 17:48:29;;;;;;;16.20;10.57;;;2.80;94.20;;;;;;5093264;28;20024;-61
2021/01/31 17:50:55;;;;;;;19.13;10.97;;;2.90;94.40;;;;;;5095508;28;20376;-60
2021/01/31 17:53:20;;;;;;;18.23;11.80;;;2.80;94.30;;;;;;5093603;28;20028;-60
2021/01/31 17:55:46;;;;;;;17.37;11.13;;;2.80;94.50;;;;;;5095305;28;20024;-60
2021/01/31 17:58:12;;;;;;;17.03;11.47;;;2.80;94.70;;;;;;5094679;28;20084;-60
2021/01/31 18:00:37;;;;;;;19.60;11.80;;;2.90;94.70;;;;;;5095571;28;20422;-60
2021/01/31 18:03:03;;;;;;;18.07;11.87;;;3.00;94.90;;;;;;5093868;28;20027;-60
2021/01/31 18:05:29;;;;;;;19.00;12.30;;;3.10;94.50;;;;;;5095252;28;20020;-61
2021/01/31 18:07:55;;;;;;;19.57;12.37;;;3.00;94.50;;;;;;5095061;28;20099;-61
2021/01/31 18:10:21;;;;;;;20.40;12.77;;;2.80;94.70;;;;;;5093617;28;20020;-59
2021/01/31 18:12:47;;;;;;;24.43;14.13;;;2.80;94.90;;;;;;5094849;28;20024;-60
2021/01/31 18:15:13;;;;;;;22.63;13.33;;;2.90;95.10;;;;;;5093816;28;20250;-67
2021/01/31 18:17:43;;;;;;;19.27;12.70;;;2.90;95.00;;;;;;5093639;28;20250;-59
2021/01/31 18:20:11;;;;;;;22.90;14.03;;;2.80;95.00;;;;;;5095269;28;20376;-60
2021/01/31 18:22:37;;;;;;;22.13;13.57;;;2.80;95.30;;;;;;5094692;28;20314;-60
2021/01/31 18:25:06;;;;;;;23.10;14.67;;;2.80;95.40;;;;;;5094785;28;20258;-60
2021/01/31 18:27:32;;;;;;;24.97;14.73;;;2.80;95.90;;;;;;5093606;28;20138;-60
2021/01/31 18:29:58;;;;;;;27.53;15.87;;;2.80;96.10;;;;;;5094509;28;20254;-61
2021/01/31 18:32:25;;;;;;;26.23;14.47;;;2.80;96.10;;;;;;5093157;28;20089;-60
2021/01/31 18:34:51;;;;;;;24.57;14.00;;;2.70;96.00;;;;;;5094353;28;20258;-60
2021/01/31 18:37:17;;;;;;;27.57;15.00;;;2.80;96.20;;;;;;5092467;28;20265;-61
2021/01/31 18:39:42;;;;;;;27.23;17.10;;;2.70;96.10;;;;;;5094632;28;20107;-61
2021/01/31 18:42:08;;;;;;;24.73;14.73;;;2.70;96.40;;;;;;5092072;28;20133;-60
2021/01/31 18:44:37;;;;;;;22.83;14.17;;;2.70;96.60;;;;;;5093585;28;20051;-60
2021/01/31 18:47:03;;;;;;;22.63;14.87;;;2.80;96.50;;;;;;5094613;28;20250;-60
2021/01/31 18:49:28;;;;;;;27.17;15.53;;;2.80;96.50;;;;;;5092967;28;20805;-60
2021/01/31 18:51:54;;;;;;;24.00;14.07;;;2.70;96.50;;;;;;5093891;28;20069;-62
2021/01/31 18:54:21;;;;;;;26.70;16.43;;;2.70;96.70;;;;;;5094133;28;20028;-65
2021/01/31 18:56:47;;;;;;;23.73;15.10;;;2.60;97.00;;;;;;5094557;28;20253;-60
2021/01/31 18:59:15;;;;;;;24.87;16.10;;;2.70;97.10;;;;;;5092471;28;20329;-61
2021/01/31 19:01:56;;;;;;;25.77;14.77;;;2.70;97.20;;;;;;5092833;28;20365;-60
2021/01/31 19:04:22;;;;;;;24.50;15.20;;;2.70;97.20;;;;;;5092684;28;20305;-62
2021/01/31 19:06:52;;;;;;;26.30;15.30;;;2.60;97.40;;;;;;5092674;28;20255;-61
2021/01/31 19:09:18;;;;;;;27.33;15.03;;;2.60;97.70;;;;;;5093701;28;20291;-60
2021/01/31 19:11:44;;;;;;;24.70;14.83;;;2.60;97.80;;;;;;5093928;28;20270;-61
2021/01/31 19:14:10;;;;;;;26.80;16.10;;;2.50;97.90;;;;;;5093669;28;20414;-60
2021/01/31 19:16:36;;;;;;;28.37;16.63;;;2.50;98.20;;;;;;5093673;28;20707;-60
2021/01/31 19:19:04;;;;;;;26.77;15.93;;;2.50;98.40;;;;;;5080785;28;20634;-60
2021/01/31 19:21:29;;;;;;;24.10;14.43;;;2.60;98.40;;;;;;5093772;28;20356;-60
2021/01/31 19:23:55;;;;;;;24.97;15.67;;;2.60;98.10;;;;;;5093238;28;20290;-59
2021/01/31 19:26:24;;;;;;;23.20;15.03;;;2.60;98.50;;;;;;5093826;28;20024;-62
2021/01/31 19:28:50;;;;;;;23.73;14.70;;;2.60;98.30;;;;;;5093037;28;20074;-60
2021/01/31 19:31:16;;;;;;;26.83;16.93;;;2.50;98.50;;;;;;5086164;28;20275;-59
2021/01/31 19:33:42;;;;;;;25.97;15.57;;;2.50;98.70;;;;;;5090762;28;20031;-60
2021/01/31 19:36:08;;;;;;;27.93;17.00;;;2.50;98.90;;;;;;5093383;28;20258;-60
2021/01/31 19:38:34;;;;;;;24.67;15.07;;;2.50;99.00;;;;;;5091608;28;20043;-60
2021/01/31 19:40:59;;;;;;;25.83;16.33;;;2.50;99.00;;;;;;5091969;28;20817;-61
2021/01/31 19:43:25;;;;;;;24.53;15.30;;;2.60;99.00;;;;;;5093037;28;20341;-61
2021/01/31 19:45:51;;;;;;;26.27;16.80;;;2.60;98.90;;;;;;5092653;28;20065;-61
2021/01/31 19:48:17;;;;;;;28.20;16.23;;;2.60;99.00;;;;;;5093492;28;20032;-60
2021/01/31 19:50:42;;;;;;;26.27;16.13;;;2.60;99.00;;;;;;5090901;28;20537;-60
2021/01/31 19:53:08;;;;;;;26.83;16.13;;;2.60;99.30;;;;;;5087615;28;20077;-60
2021/01/31 19:55:34;;;;;;;27.33;17.27;;;2.60;99.20;;;;;;5092702;28;20012;-60
2021/01/31 19:58:01;;;;;;;27.20;16.83;;;2.60;99.40;;;;;;5091533;28;20020;-62
2021/01/31 20:00:27;;;;;;;27.47;15.50;;;2.60;99.30;;;;;;5090819;28;20476;-61
2021/01/31 20:02:54;;;;;;;27.57;16.40;;;2.60;99.10;;;;;;5093210;28;20295;-61
2021/01/31 20:05:20;;;;;;;31.23;15.47;;;2.60;99.30;;;;;;5091687;28;20466;-60
2021/01/31 20:07:45;;;;;;;27.43;15.87;;;2.60;99.10;;;;;;5092836;28;20258;-61
2021/01/31 20:10:13;;;;;;;27.03;16.47;;;2.50;99.30;;;;;;5092916;28;20020;-61
2021/01/31 20:12:38;;;;;;;28.47;17.33;;;2.50;99.60;;;;;;5091824;28;20024;-61
2021/01/31 20:15:07;;;;;;;29.47;16.57;;;2.50;99.80;;;;;;5091732;28;20262;-61
2021/01/31 20:17:32;;;;;;;33.70;19.87;;;2.50;99.50;;;;;;5093276;28;20017;-60
2021/01/31 20:19:58;;;;;;;32.87;18.40;;;2.50;99.60;;;;;;5092624;28;20302;-60
2021/01/31 20:22:24;;;;;;;28.80;17.63;;;2.60;99.60;;;;;;5092472;28;20513;-60
2021/01/31 20:24:49;;;;;;;27.87;16.80;;;2.60;99.80;;;;;;5091495;28;20024;-59
2021/01/31 20:27:15;;;;;;;25.00;16.10;;;2.60;99.90;;;;;;5091204;28;20024;-59
2021/01/31 20:29:41;;;;;;;30.50;17.10;;;2.60;99.90;;;;;;5093843;28;20028;-62
2021/01/31 20:32:06;;;;;;;28.50;17.43;;;2.60;99.90;;;;;;5092901;28;20020;-63
2021/01/31 20:34:32;;;;;;;29.53;17.60;;;2.50;99.90;;;;;;5091819;28;20464;-59
2021/01/31 20:36:58;;;;;;;27.47;17.40;;;2.50;99.90;;;;;;5091479;28;20020;-60
2021/01/31 20:39:24;;;;;;;27.73;16.53;;;2.50;99.90;;;;;;5091604;28;20070;-60
2021/01/31 20:41:49;;;;;;;27.87;16.67;;;2.50;99.90;;;;;;5093329;28;20020;-61
2021/01/31 20:44:15;;;;;;;23.77;15.90;;;3.00;99.90;;;;;;5086703;28;20035;-60
2021/01/31 20:46:41;;;;;;;31.07;18.00;;;2.60;99.90;;;;;;5091511;28;20519;-61
2021/01/31 20:49:06;;;;;;;29.07;17.77;;;2.60;99.90;;;;;;5091191;28;20103;-62
2021/01/31 20:51:32;;;;;;;29.27;18.43;;;2.60;99.90;;;;;;5091470;28;20051;-61
2021/01/31 20:53:58;;;;;;;33.40;18.17;;;2.70;99.90;;;;;;5089458;28;20111;-60
2021/01/31 20:56:24;;;;;;;27.83;16.10;;;3.20;99.90;;;;;;5092433;28;20022;-59
2021/01/31 20:58:50;;;;;;;29.70;17.17;;;2.40;99.90;;;;;;5091013;28;20297;-59
2021/01/31 21:01:15;;;;;;;28.77;17.60;;;2.40;99.90;;;;;;5092620;28;20020;-61
2021/01/31 21:03:41;;;;;;;30.77;18.03;;;2.40;99.90;;;;;;5092608;28;20028;-61
2021/01/31 21:06:07;;;;;;;31.13;17.63;;;2.40;99.90;;;;;;5094139;28;20085;-61
2021/01/31 21:08:33;;;;;;;28.03;16.27;;;2.40;99.90;;;;;;5096667;28;20039;-59
2021/01/31 21:10:59;;;;;;;27.60;16.80;;;2.40;99.90;;;;;;5096486;28;20760;-59
2021/01/31 21:13:25;;;;;;;28.87;17.53;;;2.40;99.90;;;;;;5096218;28;20258;-59
2021/01/31 21:15:51;;;;;;;26.43;15.67;;;2.40;99.90;;;;;;5096365;28;21482;-59
2021/01/31 21:18:17;;;;;;;26.50;16.40;;;2.50;99.90;;;;;;5096020;28;20019;-59
2021/01/31 21:20:43;;;;;;;27.70;17.43;;;2.50;99.90;;;;;;5092451;28;20777;-59
2021/01/31 21:23:09;;;;;;;28.77;17.53;;;2.40;99.90;;;;;;5095996;28;20509;-60
2021/01/31 21:25:36;;;;;;;33.90;20.03;;;2.50;99.90;;;;;;5094454;28;20746;-60
2021/01/31 21:28:04;;;;;;;26.80;17.20;;;2.50;99.90;;;;;;5095969;28;20270;-60
2021/01/31 21:30:30;;;;;;;28.07;17.43;;;2.50;99.90;;;;;;5094062;28;20255;-59
2021/01/31 21:32:56;;;;;;;28.17;16.83;;;2.50;99.90;;;;;;5095853;28;20293;-59
2021/01/31 21:35:22;;;;;;;27.73;16.53;;;2.40;99.90;;;;;;5095530;28;20258;-61
2021/01/31 21:37:49;;;;;;;30.50;17.60;;;2.40;99.90;;;;;;5095640;28;20727;-60
2021/01/31 21:40:21;;;;;;;33.10;19.17;;;2.40;99.90;;;;;;5095268;28;20317;-60
2021/01/31 21:42:47;;;;;;;29.40;18.02;;;2.40;99.90;;;;;;5093931;28;20309;-59
2021/01/31 21:45:15;;;;;;;29.73;16.83;;;2.40;99.90;;;;;;5093298;28;20059;-61
2021/01/31 21:47:42;;;;;;;39.53;16.63;;;2.50;99.90;;;;;;5094842;28;20395;-61
2021/01/31 21:50:12;;;;;;;27.70;17.30;;;2.50;99.90;;;;;;5093700;28;20270;-60
2021/01/31 21:52:43;;;;;;;28.50;15.73;;;2.50;99.90;;;;;;5095915;28;20261;-60
2021/01/31 21:55:09;;;;;;;28.83;17.73;;;2.40;99.90;;;;;;5095625;28;20269;-60
2021/01/31 21:57:35;;;;;;;25.53;14.27;;;2.50;99.90;;;;;;5094921;28;20255;-60
2021/01/31 22:00:02;;;;;;;30.50;18.00;;;2.50;99.90;;;;;;5095242;28;20165;-60
2021/01/31 22:02:29;;;;;;;24.17;15.23;;;2.50;99.90;;;;;;5095783;28;20059;-59
2021/01/31 22:04:55;;;;;;;27.87;16.63;;;2.60;99.90;;;;;;5095093;28;20273;-61
2021/01/31 22:07:21;;;;;;;34.80;21.33;;;2.60;99.90;;;;;;5085386;28;20471;-59
2021/01/31 22:09:54;;;;;;;26.33;16.43;;;2.50;99.90;;;;;;5093859;28;20308;-60
2021/01/31 22:12:23;;;;;;;35.00;21.40;;;2.60;99.90;;;;;;5093471;28;20046;-61
2021/01/31 22:14:49;;;;;;;24.93;15.73;;;2.60;99.90;;;;;;5092660;28;20745;-60
2021/01/31 22:17:14;;;;;;;27.03;15.13;;;2.60;99.90;;;;;;5094886;28;20349;-59
2021/01/31 22:19:40;;;;;;;24.27;14.80;;;2.60;99.90;;;;;;5094779;28;20052;-59
2021/01/31 22:22:07;;;;;;;25.83;15.37;;;2.60;99.90;;;;;;5094739;28;20024;-60
2021/01/31 22:24:32;;;;;;;26.70;16.40;;;2.60;99.90;;;;;;5094696;28;20242;-60
2021/01/31 22:27:01;;;;;;;21.83;14.93;;;2.60;99.90;;;;;;5094681;28;20266;-59
2021/01/31 22:29:27;;;;;;;29.43;17.03;;;2.60;99.90;;;;;;5094753;28;20016;-59
2021/01/31 22:31:52;;;;;;;27.20;16.90;;;2.60;99.90;;;;;;5094665;28;20349;-59
2021/01/31 22:34:18;;;;;;;27.13;17.17;;;2.60;99.90;;;;;;5094553;28;20023;-59
2021/01/31 22:36:44;;;;;;;29.57;17.87;;;2.60;99.90;;;;;;5094217;28;20098;-60
2021/01/31 22:39:10;;;;;;;23.60;15.00;;;2.70;99.90;;;;;;5093019;28;20424;-59
2021/01/31 22:41:35;;;;;;;22.70;14.17;;;2.70;99.90;;;;;;5093988;28;20020;-59
2021/01/31 22:44:01;;;;;;;21.13;13.20;;;2.70;99.90;;;;;;5085754;28;20730;-60
2021/01/31 22:46:27;;;;;;;23.67;14.43;;;2.70;99.90;;;;;;5094026;28;20024;-59
2021/01/31 22:48:53;;;;;;;22.07;13.47;;;2.60;99.90;;;;;;5093683;28;20024;-60
2021/01/31 22:51:28;;;;;;;22.90;15.17;;;2.60;99.90;;;;;;5094477;28;20020;-60
2021/01/31 22:53:55;;;;;;;20.20;13.73;;;2.70;99.90;;;;;;5089587;28;20032;-59
2021/01/31 22:56:27;;;;;;;23.30;13.10;;;2.80;99.90;;;;;;5094071;28;20268;-60
2021/01/31 22:58:53;;;;;;;21.75;13.43;;;2.70;99.90;;;;;;5094386;28;20257;-59
2021/01/31 23:01:19;;;;;;;19.30;13.17;;;2.70;99.90;;;;;;5092115;28;20070;-60
2021/01/31 23:03:45;;;;;;;21.90;12.87;;;2.70;99.90;;;;;;5093711;28;20603;-59
2021/01/31 23:06:11;;;;;;;23.30;13.93;;;2.70;99.90;;;;;;5092512;28;20250;-60
2021/01/31 23:08:37;;;;;;;19.70;12.60;;;3.30;99.90;;;;;;5093219;28;20023;-60
2021/01/31 23:11:04;;;;;;;18.53;11.93;;;2.80;99.90;;;;;;5092501;28;20370;-60
2021/01/31 23:13:30;;;;;;;19.20;12.43;;;2.80;99.90;;;;;;5093519;28;20066;-60
2021/01/31 23:15:56;;;;;;;21.97;13.93;;;2.80;99.90;;;;;;5093841;28;20782;-59
2021/01/31 23:18:22;;;;;;;21.30;13.37;;;2.80;99.90;;;;;;5091587;28;20028;-60
2021/01/31 23:20:48;;;;;;;20.33;12.20;;;2.80;99.90;;;;;;5092180;28;20335;-59
2021/01/31 23:23:16;;;;;;;19.20;11.97;;;2.80;99.90;;;;;;5089096;28;20265;-59
2021/01/31 23:25:43;;;;;;;20.93;13.70;;;2.70;99.90;;;;;;5093498;28;20020;-59
2021/01/31 23:28:12;;;;;;;25.23;15.93;;;2.70;99.90;;;;;;5091915;28;20304;-59
2021/01/31 23:30:41;;;;;;;20.13;12.60;;;2.70;99.90;;;;;;5092616;28;20734;-59
2021/01/31 23:33:08;;;;;;;21.53;13.07;;;2.70;99.90;;;;;;5091765;28;20261;-58
2021/01/31 23:35:35;;;;;;;17.70;11.30;;;2.70;99.90;;;;;;5092902;28;20610;-59
2021/01/31 23:38:03;;;;;;;19.70;12.17;;;2.70;99.90;;;;;;5091333;28;20282;-59
2021/01/31 23:40:29;;;;;;;18.93;12.53;;;2.70;99.90;;;;;;5092005;28;20289;-59
2021/01/31 23:42:54;;;;;;;19.30;13.00;;;2.80;99.90;;;;;;5091629;28;20269;-59
2021/01/31 23:45:25;;;;;;;19.53;12.80;;;2.70;99.90;;;;;;5091514;28;20121;-59
2021/01/31 23:47:51;;;;;;;20.40;12.33;;;2.80;99.90;;;;;;5090407;28;20460;-60
2021/01/31 23:50:17;;;;;;;19.87;12.73;;;2.80;99.90;;;;;;5091374;28;20360;-59
2021/01/31 23:52:43;;;;;;;17.37;12.20;;;2.80;99.90;;;;;;5091460;28;20265;-59
2021/01/31 23:55:10;;;;;;;20.70;13.10;;;2.80;99.90;;;;;;5084859;28;20278;-59
2021/01/31 23:57:35;;;;;;;17.70;11.93;;;2.80;99.90;;;;;;5093207;28;20468;-59
